sensor_id;sensor_type;location;lat;lon;timestamp;P1;durP1;ratioP1;P2;durP2;ratioP2
3267;SDS011;1646;52.450;13.326;2022-10-16T00:01:26;1.20;;;1.20;;
3267;SDS011;1646;52.450;13.326;2022-10-16T00:06:27;1.07;;;1.07;;
3267;SDS011;1646;52.450;13.326;2022-10-16T00:11:27;1.17;;;1.17;;
3267;SDS011;1646;52.450;13.326;2022-10-16T00:16:26;1.00;;;1.00;;
3267;SDS011;1646;52.450;13.326;2022-10-16T00:21:27;2.10;;;1.30;;
3267;SDS011;1646;52.450;13.326;2022-10-16T00:26:27;2.30;;;1.30;;
3267;SDS011;1646;52.450;13.326;2022-10-16T00:31:26;1.20;;;1.20;;
3267;SDS011;1646;52.450;13.326;2022-10-16T00:36:25;1.20;;;1.20;;
3267;SDS011;1646;52.450;13.326;2022-10-16T00:41:26;2.10;;;1.00;;
3267;SDS011;1646;52.450;13.326;2022-10-16T00:46:25;1.40;;;1.30;;
3267;SDS011;1646;52.450;13.326;2022-10-16T00:51:28;1.43;;;1.33;;
3267;SDS011;1646;52.450;13.326;2022-10-16T00:56:29;1.10;;;1.10;;
3267;SDS011;1646;52.450;13.326;2022-10-16T01:01:28;1.03;;;1.03;;
3267;SDS011;1646;52.450;13.326;2022-10-16T01:06:30;1.03;;;1.00;;
3267;SDS011;1646;52.450;13.326;2022-10-16T01:11:38;1.20;;;1.10;;
3267;SDS011;1646;52.450;13.326;2022-10-16T01:16:43;1.40;;;1.30;;
3267;SDS011;1646;52.450;13.326;2022-10-16T01:21:47;1.07;;;1.07;;
3267;SDS011;1646;52.450;13.326;2022-10-16T01:32:15;1.77;;;1.10;;
3267;SDS011;1646;52.450;13.326;2022-10-16T01:37:16;1.23;;;1.13;;
3267;SDS011;1646;52.450;13.326;2022-10-16T01:42:22;1.63;;;1.53;;
3267;SDS011;1646;52.450;13.326;2022-10-16T01:47:25;1.27;;;1.27;;
3267;SDS011;1646;52.450;13.326;2022-10-16T01:52:25;1.20;;;1.10;;
3267;SDS011;1646;52.450;13.326;2022-10-16T01:57:27;1.10;;;1.10;;
3267;SDS011;1646;52.450;13.326;2022-10-16T02:02:28;2.80;;;1.43;;
3267;SDS011;1646;52.450;13.326;2022-10-16T02:07:28;1.47;;;1.20;;
3267;SDS011;1646;52.450;13.326;2022-10-16T02:12:29;1.80;;;1.37;;
3267;SDS011;1646;52.450;13.326;2022-10-16T02:17:30;2.83;;;1.60;;
3267;SDS011;1646;52.450;13.326;2022-10-16T02:22:30;1.40;;;1.30;;
3267;SDS011;1646;52.450;13.326;2022-10-16T02:27:32;3.70;;;1.13;;
3267;SDS011;1646;52.450;13.326;2022-10-16T02:32:36;1.23;;;1.10;;
3267;SDS011;1646;52.450;13.326;2022-10-16T02:37:37;1.50;;;1.40;;
3267;SDS011;1646;52.450;13.326;2022-10-16T02:42:39;1.40;;;0.97;;
3267;SDS011;1646;52.450;13.326;2022-10-16T02:47:37;1.07;;;1.00;;
3267;SDS011;1646;52.450;13.326;2022-10-16T02:52:35;1.10;;;1.00;;
3267;SDS011;1646;52.450;13.326;2022-10-16T02:57:33;1.17;;;1.17;;
3267;SDS011;1646;52.450;13.326;2022-10-16T03:02:34;1.00;;;1.00;;
3267;SDS011;1646;52.450;13.326;2022-10-16T03:07:32;1.03;;;1.03;;
3267;SDS011;1646;52.450;13.326;2022-10-16T03:12:30;1.30;;;1.20;;
3267;SDS011;1646;52.450;13.326;2022-10-16T03:17:28;1.43;;;1.43;;
3267;SDS011;1646;52.450;13.326;2022-10-16T03:22:27;1.67;;;1.40;;
3267;SDS011;1646;52.450;13.326;2022-10-16T03:27:25;1.27;;;1.17;;
3267;SDS011;1646;52.450;13.326;2022-10-16T03:32:24;2.30;;;1.30;;
3267;SDS011;1646;52.450;13.326;2022-10-16T03:37:22;1.37;;;1.27;;
3267;SDS011;1646;52.450;13.326;2022-10-16T03:42:22;1.97;;;1.33;;
3267;SDS011;1646;52.450;13.326;2022-10-16T03:47:20;1.70;;;1.67;;
3267;SDS011;1646;52.450;13.326;2022-10-16T03:52:20;2.53;;;2.07;;
3267;SDS011;1646;52.450;13.326;2022-10-16T03:57:18;1.37;;;1.37;;
3267;SDS011;1646;52.450;13.326;2022-10-16T04:02:18;1.37;;;1.27;;
3267;SDS011;1646;52.450;13.326;2022-10-16T04:07:16;1.40;;;1.30;;
3267;SDS011;1646;52.450;13.326;2022-10-16T04:12:14;1.50;;;1.20;;
3267;SDS011;1646;52.450;13.326;2022-10-16T04:17:12;1.60;;;1.50;;
3267;SDS011;1646;52.450;13.326;2022-10-16T04:22:11;1.90;;;1.40;;
3267;SDS011;1646;52.450;13.326;2022-10-16T04:27:09;1.60;;;1.27;;
3267;SDS011;1646;52.450;13.326;2022-10-16T04:32:07;1.40;;;1.30;;
3267;SDS011;1646;52.450;13.326;2022-10-16T04:37:06;2.27;;;1.90;;
3267;SDS011;1646;52.450;13.326;2022-10-16T04:42:05;2.03;;;1.40;;
3267;SDS011;1646;52.450;13.326;2022-10-16T04:47:03;1.53;;;1.43;;
3267;SDS011;1646;52.450;13.326;2022-10-16T04:52:02;1.20;;;1.10;;
3267;SDS011;1646;52.450;13.326;2022-10-16T04:57:00;2.40;;;2.07;;
3267;SDS011;1646;52.450;13.326;2022-10-16T05:01:59;1.47;;;1.43;;
3267;SDS011;1646;52.450;13.326;2022-10-16T05:06:57;1.60;;;1.50;;
3267;SDS011;1646;52.450;13.326;2022-10-16T05:11:55;1.70;;;1.60;;
3267;SDS011;1646;52.450;13.326;2022-10-16T05:16:53;1.50;;;1.40;;
3267;SDS011;1646;52.450;13.326;2022-10-16T05:21:52;4.30;;;1.83;;
3267;SDS011;1646;52.450;13.326;2022-10-16T05:26:50;1.57;;;1.57;;
3267;SDS011;1646;52.450;13.326;2022-10-16T05:31:49;2.20;;;2.10;;
3267;SDS011;1646;52.450;13.326;2022-10-16T05:36:49;2.33;;;2.13;;
3267;SDS011;1646;52.450;13.326;2022-10-16T05:41:49;2.40;;;2.20;;
3267;SDS011;1646;52.450;13.326;2022-10-16T05:46:47;1.63;;;1.43;;
3267;SDS011;1646;52.450;13.326;2022-10-16T05:51:45;2.30;;;2.10;;
3267;SDS011;1646;52.450;13.326;2022-10-16T05:56:43;2.47;;;2.20;;
3267;SDS011;1646;52.450;13.326;2022-10-16T06:01:42;2.30;;;2.10;;
3267;SDS011;1646;52.450;13.326;2022-10-16T06:06:40;2.30;;;2.20;;
3267;SDS011;1646;52.450;13.326;2022-10-16T06:11:38;2.77;;;2.40;;
3267;SDS011;1646;52.450;13.326;2022-10-16T06:16:36;2.00;;;1.80;;
3267;SDS011;1646;52.450;13.326;2022-10-16T06:21:36;2.10;;;2.00;;
3267;SDS011;1646;52.450;13.326;2022-10-16T06:26:34;4.63;;;2.43;;
3267;SDS011;1646;52.450;13.326;2022-10-16T06:31:31;1.47;;;1.47;;
3267;SDS011;1646;52.450;13.326;2022-10-16T06:36:29;1.70;;;1.70;;
3267;SDS011;1646;52.450;13.326;2022-10-16T06:41:29;2.03;;;1.90;;
3267;SDS011;1646;52.450;13.326;2022-10-16T06:46:33;3.00;;;1.43;;
3267;SDS011;1646;52.450;13.326;2022-10-16T06:51:32;1.30;;;1.30;;
3267;SDS011;1646;52.450;13.326;2022-10-16T06:56:37;2.97;;;1.50;;
3267;SDS011;1646;52.450;13.326;2022-10-16T07:01:35;1.80;;;1.50;;
3267;SDS011;1646;52.450;13.326;2022-10-16T07:06:33;1.13;;;1.13;;
3267;SDS011;1646;52.450;13.326;2022-10-16T07:11:31;3.70;;;1.40;;
3267;SDS011;1646;52.450;13.326;2022-10-16T07:16:32;1.10;;;1.10;;
3267;SDS011;1646;52.450;13.326;2022-10-16T07:21:30;1.97;;;1.40;;
3267;SDS011;1646;52.450;13.326;2022-10-16T07:26:33;1.20;;;1.20;;
3267;SDS011;1646;52.450;13.326;2022-10-16T07:31:33;2.40;;;0.83;;
3267;SDS011;1646;52.450;13.326;2022-10-16T07:36:31;1.73;;;1.07;;
3267;SDS011;1646;52.450;13.326;2022-10-16T07:41:29;1.67;;;1.23;;
3267;SDS011;1646;52.450;13.326;2022-10-16T07:46:29;3.23;;;0.97;;
3267;SDS011;1646;52.450;13.326;2022-10-16T07:51:29;1.83;;;1.20;;
3267;SDS011;1646;52.450;13.326;2022-10-16T07:56:27;2.37;;;0.90;;
3267;SDS011;1646;52.450;13.326;2022-10-16T08:01:25;1.10;;;1.00;;
3267;SDS011;1646;52.450;13.326;2022-10-16T08:06:23;2.23;;;1.30;;
3267;SDS011;1646;52.450;13.326;2022-10-16T08:11:24;1.10;;;1.00;;
3267;SDS011;1646;52.450;13.326;2022-10-16T08:16:22;1.97;;;1.10;;
3267;SDS011;1646;52.450;13.326;2022-10-16T08:21:21;0.90;;;0.90;;
3267;SDS011;1646;52.450;13.326;2022-10-16T08:26:20;1.00;;;1.00;;
3267;SDS011;1646;52.450;13.326;2022-10-16T08:31:19;1.30;;;1.20;;
3267;SDS011;1646;52.450;13.326;2022-10-16T08:36:18;1.07;;;1.03;;
3267;SDS011;1646;52.450;13.326;2022-10-16T08:46:55;1.30;;;1.30;;
3267;SDS011;1646;52.450;13.326;2022-10-16T08:52:00;2.23;;;1.10;;
3267;SDS011;1646;52.450;13.326;2022-10-16T08:57:00;1.43;;;1.27;;
3267;SDS011;1646;52.450;13.326;2022-10-16T09:02:13;1.60;;;1.13;;
3267;SDS011;1646;52.450;13.326;2022-10-16T09:07:22;0.90;;;0.90;;
3267;SDS011;1646;52.450;13.326;2022-10-16T09:12:28;1.57;;;1.20;;
3267;SDS011;1646;52.450;13.326;2022-10-16T09:17:39;1.07;;;1.07;;
3267;SDS011;1646;52.450;13.326;2022-10-16T09:22:43;4.10;;;1.30;;
3267;SDS011;1646;52.450;13.326;2022-10-16T09:27:41;2.00;;;1.00;;
3267;SDS011;1646;52.450;13.326;2022-10-16T09:32:43;4.47;;;1.03;;
3267;SDS011;1646;52.450;13.326;2022-10-16T09:37:43;2.80;;;1.30;;
3267;SDS011;1646;52.450;13.326;2022-10-16T09:42:44;1.70;;;1.40;;
3267;SDS011;1646;52.450;13.326;2022-10-16T09:47:43;1.10;;;1.00;;
3267;SDS011;1646;52.450;13.326;2022-10-16T09:52:41;6.60;;;1.10;;
3267;SDS011;1646;52.450;13.326;2022-10-16T09:57:48;1.83;;;1.00;;
3267;SDS011;1646;52.450;13.326;2022-10-16T10:02:47;2.27;;;1.00;;
3267;SDS011;1646;52.450;13.326;2022-10-16T10:07:46;1.40;;;1.20;;
3267;SDS011;1646;52.450;13.326;2022-10-16T10:12:52;1.60;;;1.23;;
3267;SDS011;1646;52.450;13.326;2022-10-16T10:17:53;1.17;;;1.07;;
3267;SDS011;1646;52.450;13.326;2022-10-16T10:22:52;1.90;;;0.93;;
3267;SDS011;1646;52.450;13.326;2022-10-16T10:33:31;2.17;;;1.00;;
3267;SDS011;1646;52.450;13.326;2022-10-16T10:38:39;3.00;;;1.20;;
3267;SDS011;1646;52.450;13.326;2022-10-16T10:43:47;2.50;;;0.90;;
3267;SDS011;1646;52.450;13.326;2022-10-16T10:49:03;3.23;;;0.93;;
3267;SDS011;1646;52.450;13.326;2022-10-16T10:54:15;1.63;;;1.20;;
3267;SDS011;1646;52.450;13.326;2022-10-16T11:05:00;1.47;;;0.87;;
3267;SDS011;1646;52.450;13.326;2022-10-16T11:10:25;3.70;;;0.90;;
3267;SDS011;1646;52.450;13.326;2022-10-16T11:15:27;4.83;;;0.87;;
3267;SDS011;1646;52.450;13.326;2022-10-16T11:20:31;2.90;;;1.00;;
3267;SDS011;1646;52.450;13.326;2022-10-16T11:25:31;2.10;;;0.80;;
3267;SDS011;1646;52.450;13.326;2022-10-16T11:30:30;1.10;;;1.00;;
3267;SDS011;1646;52.450;13.326;2022-10-16T11:35:36;1.20;;;1.10;;
3267;SDS011;1646;52.450;13.326;2022-10-16T11:40:41;0.90;;;0.80;;
3267;SDS011;1646;52.450;13.326;2022-10-16T11:45:44;0.93;;;0.60;;
3267;SDS011;1646;52.450;13.326;2022-10-16T11:50:49;2.97;;;0.70;;
3267;SDS011;1646;52.450;13.326;2022-10-16T11:55:51;1.90;;;0.70;;
3267;SDS011;1646;52.450;13.326;2022-10-16T12:00:52;3.90;;;0.70;;
3267;SDS011;1646;52.450;13.326;2022-10-16T12:11:24;2.50;;;0.80;;
3267;SDS011;1646;52.450;13.326;2022-10-16T12:16:29;2.80;;;0.80;;
3267;SDS011;1646;52.450;13.326;2022-10-16T12:21:31;1.40;;;0.80;;
3267;SDS011;1646;52.450;13.326;2022-10-16T12:26:29;1.17;;;0.80;;
3267;SDS011;1646;52.450;13.326;2022-10-16T12:31:35;3.80;;;0.90;;
3267;SDS011;1646;52.450;13.326;2022-10-16T12:36:54;3.07;;;0.70;;
3267;SDS011;1646;52.450;13.326;2022-10-16T12:42:17;0.80;;;0.80;;
3267;SDS011;1646;52.450;13.326;2022-10-16T12:47:22;0.70;;;0.70;;
3267;SDS011;1646;52.450;13.326;2022-10-16T12:52:36;2.30;;;0.70;;
3267;SDS011;1646;52.450;13.326;2022-10-16T12:57:38;2.60;;;0.80;;
3267;SDS011;1646;52.450;13.326;2022-10-16T13:03:02;0.70;;;0.60;;
3267;SDS011;1646;52.450;13.326;2022-10-16T13:08:32;3.90;;;0.80;;
3267;SDS011;1646;52.450;13.326;2022-10-16T13:13:47;1.00;;;0.70;;
3267;SDS011;1646;52.450;13.326;2022-10-16T13:19:08;0.80;;;0.80;;
3267;SDS011;1646;52.450;13.326;2022-10-16T13:24:22;1.73;;;0.90;;
3267;SDS011;1646;52.450;13.326;2022-10-16T13:29:30;0.60;;;0.60;;
3267;SDS011;1646;52.450;13.326;2022-10-16T13:34:30;1.07;;;0.60;;
3267;SDS011;1646;52.450;13.326;2022-10-16T13:39:30;2.07;;;1.10;;
3267;SDS011;1646;52.450;13.326;2022-10-16T13:44:28;2.47;;;0.90;;
3267;SDS011;1646;52.450;13.326;2022-10-16T13:49:32;2.30;;;0.90;;
3267;SDS011;1646;52.450;13.326;2022-10-16T13:54:32;3.43;;;0.77;;
3267;SDS011;1646;52.450;13.326;2022-10-16T13:59:32;1.27;;;0.83;;
3267;SDS011;1646;52.450;13.326;2022-10-16T14:04:31;1.37;;;0.77;;
3267;SDS011;1646;52.450;13.326;2022-10-16T14:09:31;2.17;;;0.73;;
3267;SDS011;1646;52.450;13.326;2022-10-16T14:14:32;1.33;;;0.70;;
3267;SDS011;1646;52.450;13.326;2022-10-16T14:19:37;2.43;;;0.80;;
3267;SDS011;1646;52.450;13.326;2022-10-16T14:24:36;0.80;;;0.67;;
3267;SDS011;1646;52.450;13.326;2022-10-16T14:29:34;1.00;;;0.73;;
3267;SDS011;1646;52.450;13.326;2022-10-16T14:34:33;1.20;;;0.80;;
3267;SDS011;1646;52.450;13.326;2022-10-16T14:39:33;1.00;;;0.77;;
3267;SDS011;1646;52.450;13.326;2022-10-16T14:44:34;0.80;;;0.60;;
3267;SDS011;1646;52.450;13.326;2022-10-16T14:49:32;0.90;;;0.90;;
3267;SDS011;1646;52.450;13.326;2022-10-16T14:54:31;0.90;;;0.90;;
3267;SDS011;1646;52.450;13.326;2022-10-16T14:59:30;10.67;;;0.83;;
3267;SDS011;1646;52.450;13.326;2022-10-16T15:04:32;1.10;;;0.93;;
3267;SDS011;1646;52.450;13.326;2022-10-16T15:09:30;0.90;;;0.73;;
3267;SDS011;1646;52.450;13.326;2022-10-16T15:14:28;1.37;;;0.70;;
3267;SDS011;1646;52.450;13.326;2022-10-16T15:19:26;1.33;;;0.87;;
3267;SDS011;1646;52.450;13.326;2022-10-16T15:24:25;2.50;;;1.03;;
3267;SDS011;1646;52.450;13.326;2022-10-16T15:29:23;5.40;;;1.10;;
3267;SDS011;1646;52.450;13.326;2022-10-16T15:34:21;2.50;;;0.70;;
3267;SDS011;1646;52.450;13.326;2022-10-16T15:39:19;3.17;;;1.00;;
3267;SDS011;1646;52.450;13.326;2022-10-16T15:44:19;2.40;;;1.20;;
3267;SDS011;1646;52.450;13.326;2022-10-16T15:49:19;1.83;;;1.00;;
3267;SDS011;1646;52.450;13.326;2022-10-16T15:54:17;2.10;;;1.57;;
3267;SDS011;1646;52.450;13.326;2022-10-16T15:59:19;2.13;;;1.20;;
3267;SDS011;1646;52.450;13.326;2022-10-16T16:04:17;1.77;;;1.60;;
3267;SDS011;1646;52.450;13.326;2022-10-16T16:09:35;2.37;;;1.50;;
3267;SDS011;1646;52.450;13.326;2022-10-16T16:14:35;3.13;;;1.47;;
3267;SDS011;1646;52.450;13.326;2022-10-16T16:19:33;1.80;;;1.70;;
3267;SDS011;1646;52.450;13.326;2022-10-16T16:24:31;5.73;;;2.43;;
3267;SDS011;1646;52.450;13.326;2022-10-16T16:29:29;3.47;;;1.80;;
3267;SDS011;1646;52.450;13.326;2022-10-16T16:34:28;3.17;;;1.73;;
3267;SDS011;1646;52.450;13.326;2022-10-16T16:39:27;2.70;;;2.17;;
3267;SDS011;1646;52.450;13.326;2022-10-16T16:44:25;2.33;;;1.80;;
3267;SDS011;1646;52.450;13.326;2022-10-16T16:49:23;3.90;;;2.23;;
3267;SDS011;1646;52.450;13.326;2022-10-16T16:54:23;2.23;;;1.97;;
3267;SDS011;1646;52.450;13.326;2022-10-16T16:59:21;2.53;;;2.10;;
3267;SDS011;1646;52.450;13.326;2022-10-16T17:04:19;3.97;;;1.67;;
3267;SDS011;1646;52.450;13.326;2022-10-16T17:09:17;3.20;;;2.07;;
3267;SDS011;1646;52.450;13.326;2022-10-16T17:14:16;3.83;;;3.00;;
3267;SDS011;1646;52.450;13.326;2022-10-16T17:19:16;9.87;;;8.87;;
3267;SDS011;1646;52.450;13.326;2022-10-16T17:24:16;13.30;;;10.70;;
3267;SDS011;1646;52.450;13.326;2022-10-16T17:29:17;17.30;;;13.70;;
3267;SDS011;1646;52.450;13.326;2022-10-16T17:34:15;7.10;;;5.13;;
3267;SDS011;1646;52.450;13.326;2022-10-16T17:39:14;5.80;;;4.00;;
3267;SDS011;1646;52.450;13.326;2022-10-16T17:44:14;7.57;;;4.80;;
3267;SDS011;1646;52.450;13.326;2022-10-16T17:49:17;7.53;;;4.67;;
3267;SDS011;1646;52.450;13.326;2022-10-16T17:54:16;6.90;;;3.50;;
3267;SDS011;1646;52.450;13.326;2022-10-16T17:59:14;11.07;;;5.53;;
3267;SDS011;1646;52.450;13.326;2022-10-16T18:04:13;7.47;;;5.33;;
3267;SDS011;1646;52.450;13.326;2022-10-16T18:09:16;7.97;;;5.30;;
3267;SDS011;1646;52.450;13.326;2022-10-16T18:14:16;8.87;;;4.47;;
3267;SDS011;1646;52.450;13.326;2022-10-16T18:19:14;6.27;;;4.30;;
3267;SDS011;1646;52.450;13.326;2022-10-16T18:24:12;8.27;;;4.17;;
3267;SDS011;1646;52.450;13.326;2022-10-16T18:29:12;5.53;;;3.30;;
3267;SDS011;1646;52.450;13.326;2022-10-16T18:34:10;10.87;;;3.90;;
3267;SDS011;1646;52.450;13.326;2022-10-16T18:39:08;16.93;;;5.10;;
3267;SDS011;1646;52.450;13.326;2022-10-16T18:44:07;11.40;;;5.80;;
3267;SDS011;1646;52.450;13.326;2022-10-16T18:49:07;10.73;;;4.50;;
3267;SDS011;1646;52.450;13.326;2022-10-16T18:54:06;7.57;;;4.50;;
3267;SDS011;1646;52.450;13.326;2022-10-16T18:59:06;5.70;;;4.70;;
3267;SDS011;1646;52.450;13.326;2022-10-16T19:04:06;10.37;;;5.27;;
3267;SDS011;1646;52.450;13.326;2022-10-16T19:09:06;7.70;;;4.90;;
3267;SDS011;1646;52.450;13.326;2022-10-16T19:14:04;9.37;;;4.97;;
3267;SDS011;1646;52.450;13.326;2022-10-16T19:19:03;10.53;;;5.53;;
3267;SDS011;1646;52.450;13.326;2022-10-16T19:24:04;7.23;;;4.60;;
3267;SDS011;1646;52.450;13.326;2022-10-16T19:29:03;9.70;;;5.00;;
3267;SDS011;1646;52.450;13.326;2022-10-16T19:34:02;9.97;;;6.10;;
3267;SDS011;1646;52.450;13.326;2022-10-16T19:39:02;9.37;;;5.60;;
3267;SDS011;1646;52.450;13.326;2022-10-16T19:44:04;8.10;;;5.23;;
3267;SDS011;1646;52.450;13.326;2022-10-16T19:49:04;8.73;;;6.33;;
3267;SDS011;1646;52.450;13.326;2022-10-16T19:54:06;10.53;;;5.43;;
3267;SDS011;1646;52.450;13.326;2022-10-16T19:59:08;8.70;;;6.43;;
3267;SDS011;1646;52.450;13.326;2022-10-16T20:04:08;12.73;;;5.93;;
3267;SDS011;1646;52.450;13.326;2022-10-16T20:09:07;8.93;;;6.00;;
3267;SDS011;1646;52.450;13.326;2022-10-16T20:14:06;7.60;;;5.80;;
3267;SDS011;1646;52.450;13.326;2022-10-16T20:19:04;9.70;;;6.97;;
3267;SDS011;1646;52.450;13.326;2022-10-16T20:24:02;17.30;;;7.07;;
3267;SDS011;1646;52.450;13.326;2022-10-16T20:29:03;9.90;;;5.90;;
3267;SDS011;1646;52.450;13.326;2022-10-16T20:34:03;11.80;;;6.57;;
3267;SDS011;1646;52.450;13.326;2022-10-16T20:39:02;7.37;;;5.93;;
3267;SDS011;1646;52.450;13.326;2022-10-16T20:44:01;8.30;;;5.93;;
3267;SDS011;1646;52.450;13.326;2022-10-16T20:49:01;10.90;;;6.20;;
3267;SDS011;1646;52.450;13.326;2022-10-16T20:54:11;9.27;;;5.40;;
3267;SDS011;1646;52.450;13.326;2022-10-16T20:59:11;8.17;;;5.27;;
3267;SDS011;1646;52.450;13.326;2022-10-16T21:04:09;8.37;;;6.20;;
3267;SDS011;1646;52.450;13.326;2022-10-16T21:09:07;9.73;;;6.33;;
3267;SDS011;1646;52.450;13.326;2022-10-16T21:14:06;9.10;;;5.90;;
3267;SDS011;1646;52.450;13.326;2022-10-16T21:19:06;7.90;;;5.43;;
3267;SDS011;1646;52.450;13.326;2022-10-16T21:24:05;10.07;;;6.33;;
3267;SDS011;1646;52.450;13.326;2022-10-16T21:29:10;9.50;;;6.33;;
3267;SDS011;1646;52.450;13.326;2022-10-16T21:34:09;8.50;;;6.10;;
3267;SDS011;1646;52.450;13.326;2022-10-16T21:39:08;8.77;;;6.33;;
3267;SDS011;1646;52.450;13.326;2022-10-16T21:44:08;10.20;;;6.90;;
3267;SDS011;1646;52.450;13.326;2022-10-16T21:49:07;9.13;;;6.23;;
3267;SDS011;1646;52.450;13.326;2022-10-16T21:54:09;9.43;;;6.43;;
3267;SDS011;1646;52.450;13.326;2022-10-16T21:59:09;10.47;;;6.63;;
3267;SDS011;1646;52.450;13.326;2022-10-16T22:04:09;11.40;;;6.23;;
3267;SDS011;1646;52.450;13.326;2022-10-16T22:09:08;12.93;;;7.17;;
3267;SDS011;1646;52.450;13.326;2022-10-16T22:14:08;7.70;;;5.97;;
3267;SDS011;1646;52.450;13.326;2022-10-16T22:19:10;7.60;;;5.50;;
3267;SDS011;1646;52.450;13.326;2022-10-16T22:24:09;8.27;;;6.70;;
3267;SDS011;1646;52.450;13.326;2022-10-16T22:29:08;7.83;;;5.73;;
3267;SDS011;1646;52.450;13.326;2022-10-16T22:34:09;8.50;;;6.50;;
3267;SDS011;1646;52.450;13.326;2022-10-16T22:39:10;8.03;;;6.30;;
3267;SDS011;1646;52.450;13.326;2022-10-16T22:44:09;8.97;;;6.43;;
3267;SDS011;1646;52.450;13.326;2022-10-16T22:49:08;9.27;;;6.23;;
3267;SDS011;1646;52.450;13.326;2022-10-16T22:54:07;14.73;;;7.90;;
3267;SDS011;1646;52.450;13.326;2022-10-16T22:59:05;9.20;;;7.20;;
3267;SDS011;1646;52.450;13.326;2022-10-16T23:04:03;7.83;;;6.40;;
3267;SDS011;1646;52.450;13.326;2022-10-16T23:09:02;9.10;;;6.57;;
3267;SDS011;1646;52.450;13.326;2022-10-16T23:14:01;10.77;;;6.43;;
3267;SDS011;1646;52.450;13.326;2022-10-16T23:18:59;8.30;;;5.70;;
3267;SDS011;1646;52.450;13.326;2022-10-16T23:23:57;9.03;;;6.20;;
3267;SDS011;1646;52.450;13.326;2022-10-16T23:28:56;6.17;;;5.20;;
3267;SDS011;1646;52.450;13.326;2022-10-16T23:33:56;9.83;;;6.00;;
3267;SDS011;1646;52.450;13.326;2022-10-16T23:38:55;10.67;;;6.40;;
3267;SDS011;1646;52.450;13.326;2022-10-16T23:43:53;6.87;;;5.90;;
3267;SDS011;1646;52.450;13.326;2022-10-16T23:48:51;9.43;;;6.07;;
3267;SDS011;1646;52.450;13.326;2022-10-16T23:53:50;7.60;;;5.20;;
3267;SDS011;1646;52.450;13.326;2022-10-16T23:58:48;9.17;;;6.20;;
